Weyers Cave, VA

2:45 PM EST on January 23, 2017 (GMT -0500)
Shenandoah Valley Regional

Weather History for KSHD - January, 2013

Change the Weather History Date:

Saturday, January 5, 2013

  Actual Average Record
Temperature  
Mean Temperature 37 °F -  
Max Temperature 48 °F 47 °F 68 °F (1997)
Min Temperature 26 °F 27 °F 10 °F (1999)
Degree Days  
Heating Degree Days 28    
Moisture  
Dew Point 19 °F    
Average Humidity 49    
Maximum Humidity 71    
Minimum Humidity 26    
Precipitation  
Precipitation 0.00 in - - ()
Sea Level Pressure  
Sea Level Pressure 30.26 in    
Wind  
Wind Speed 4 mph (SSW)    
Max Wind Speed 9 mph    
Max Gust Speed -    
Visibility 10 miles    
Events      
Averages and records for this station are not official NWS values.
T = Trace of Precipitation, MM = Missing Value Source: NWS Daily Summary

Daily Weather History Graph

Daily Weather History Graph

Search for Another Location

Airport or City:

Trip Planner

Search our weather history database for the weather conditions in past years. The results will help you decide how hot, cold, wet, or windy it might be!

Date:

Astronomy

Jan. 05, 2013 Rise Set
Actual Time 7:32 AM EST 5:09 PM EST
Civil Twilight 7:03 AM EST 5:39 PM EST
Nautical Twilight 6:30 AM EST 6:12 PM EST
Astronomical Twilight 5:58 AM EST 6:44 PM EST
Moon 12:40 AM EST (1/5) 11:56 AM EST (1/5)
Length of Visible Light 10h 35m
Length of Day
9h 37m
Last Quarter, 44% of the Moon is Illuminated
Jan 5
Last Quarter
Jan 11
New
Jan 18
First Quarter
Jan 26
Full
Feb 3
Last Quarter

Hourly Weather History & Observations

Time (EST) Temp. Windchill Dew Point Humidity Pressure Visibility Wind Dir Wind Speed Gust Speed Precip Events Conditions
12:15 AM 33.1 °F 27.7 °F 18.7 °F 56% 30.20 in 10.0 mi SW 5.8 mph - N/A   Clear
12:35 AM 32.2 °F 25.8 °F 19.0 °F 58% 30.20 in 10.0 mi SW 6.9 mph - N/A   Clear
12:55 AM 32.0 °F 24.2 °F 19.6 °F 60% 30.20 in 10.0 mi WSW 9.2 mph - N/A   Clear
1:15 AM 32.0 °F 26.4 °F 19.4 °F 60% 30.20 in 10.0 mi SW 5.8 mph - N/A   Clear
1:35 AM 30.9 °F 27.5 °F 19.2 °F 62% 30.20 in 10.0 mi SSW 3.5 mph - N/A   Clear
2:15 AM 30.0 °F 24.1 °F 19.0 °F 64% 30.21 in 10.0 mi SW 5.8 mph - N/A   Clear
2:35 AM 32.0 °F 24.2 °F 19.6 °F 60% 30.23 in 10.0 mi SW 9.2 mph - N/A   Clear
2:55 AM 31.6 °F 25.1 °F 19.4 °F 61% 30.24 in 10.0 mi SW 6.9 mph - N/A   Clear
3:15 AM 32.2 °F 26.7 °F 18.9 °F 58% 30.24 in 10.0 mi South 5.8 mph - N/A   Clear
3:35 AM 29.3 °F 25.6 °F 18.7 °F 65% 30.24 in 10.0 mi WSW 3.5 mph - N/A   Clear
3:55 AM 31.3 °F 24.7 °F 18.1 °F 58% 30.24 in 10.0 mi WSW 6.9 mph - N/A   Clear
4:15 AM 32.2 °F 26.7 °F 16.7 °F 53% 30.25 in 10.0 mi West 5.8 mph - N/A   Clear
4:35 AM 28.8 °F 22.6 °F 17.6 °F 63% 30.25 in 10.0 mi WSW 5.8 mph - N/A   Clear
4:55 AM 29.7 °F 26.1 °F 17.6 °F 61% 30.27 in 10.0 mi WSW 3.5 mph - N/A   Clear
5:15 AM 29.8 °F 24.9 °F 17.4 °F 60% 30.28 in 10.0 mi West 4.6 mph - N/A   Clear
5:35 AM 33.1 °F 25.5 °F 17.4 °F 53% 30.28 in 10.0 mi West 9.2 mph - N/A   Clear
5:55 AM 32.5 °F 28.1 °F 17.4 °F 54% 30.29 in 10.0 mi WSW 4.6 mph - N/A   Clear
6:15 AM 32.0 °F - 16.9 °F 54% 30.28 in 10.0 mi Calm Calm - N/A   Clear
6:35 AM 29.3 °F 24.3 °F 16.7 °F 59% 30.28 in 10.0 mi ESE 4.6 mph - N/A   Clear
6:55 AM 30.0 °F - 17.1 °F 59% 30.28 in 10.0 mi Calm Calm - N/A   Clear
7:35 AM 27.1 °F - 17.2 °F 66% 30.30 in 10.0 mi Calm Calm - N/A   Clear
7:55 AM 26.1 °F - 17.1 °F 69% 30.32 in 10.0 mi Calm Calm - N/A   Clear
8:15 AM 27.9 °F - 18.3 °F 67% 30.32 in 10.0 mi Calm Calm - N/A   Clear
8:35 AM 28.0 °F - 19.6 °F 71% 30.34 in 10.0 mi Calm Calm - N/A   Clear
8:55 AM 32.0 °F - 20.1 °F 62% 30.33 in 10.0 mi Calm Calm - N/A   Clear
9:15 AM 32.7 °F - 19.8 °F 59% 30.33 in 10.0 mi Calm Calm - N/A   Clear
9:35 AM 34.9 °F - 19.9 °F 55% 30.35 in 10.0 mi Calm Calm - N/A   Clear
9:55 AM 36.7 °F 34.1 °F 20.5 °F 52% 30.36 in 10.0 mi SW 3.5 mph - N/A   Clear
10:15 AM 39.0 °F 36.8 °F 19.8 °F 46% 30.37 in 10.0 mi SW 3.5 mph - N/A   Clear
10:35 AM 40.3 °F 36.3 °F 18.9 °F 42% 30.36 in 10.0 mi SSW 5.8 mph - N/A   Clear
10:55 AM 41.2 °F 38.2 °F 18.1 °F 40% 30.35 in 10.0 mi SSW 4.6 mph - N/A   Clear
11:15 AM 42.3 °F 37.9 °F 17.6 °F 37% 30.35 in 10.0 mi SW 6.9 mph - N/A   Clear
11:55 AM 43.7 °F - 16.9 °F 34% 30.33 in 10.0 mi Calm Calm - N/A   Clear
12:15 PM 44.1 °F - 16.7 °F 33% 30.32 in 10.0 mi Calm Calm - N/A   Clear
12:35 PM 45.3 °F 43.0 °F 17.2 °F 33% 30.30 in 10.0 mi South 4.6 mph - N/A   Clear
12:55 PM 45.7 °F 43.4 °F 16.3 °F 31% 30.29 in 10.0 mi SW 4.6 mph - N/A   Clear
1:15 PM 46.4 °F 45.2 °F 16.9 °F 31% 30.28 in 10.0 mi SW 3.5 mph - N/A   Clear
1:35 PM 46.4 °F 44.3 °F 14.5 °F 28% 30.27 in 10.0 mi South 4.6 mph - N/A   Clear
1:55 PM 46.8 °F - 15.6 °F 29% 30.27 in 10.0 mi South 4.6 mph - N/A   Clear
2:15 PM 47.3 °F - 16.2 °F 29% 30.26 in 10.0 mi SSE 4.6 mph - N/A   Clear
2:35 PM 47.5 °F - 15.4 °F 28% 30.26 in 10.0 mi Calm Calm - N/A   Clear
2:55 PM 47.8 °F - 15.8 °F 28% 30.25 in 10.0 mi SSW 3.5 mph - N/A   Clear
3:15 PM 48.2 °F - 14.2 °F 26% 30.25 in 10.0 mi Calm Calm - N/A   Clear
3:35 PM 48.2 °F - 14.9 °F 26% 30.25 in 10.0 mi South 4.6 mph - N/A   Clear
3:55 PM 47.8 °F - 15.4 °F 27% 30.25 in 10.0 mi SW 4.6 mph - N/A   Clear
4:15 PM 47.5 °F - 16.3 °F 29% 30.25 in 10.0 mi Calm Calm - N/A   Clear
4:35 PM 46.4 °F - 16.7 °F 31% 30.25 in 10.0 mi Calm Calm - N/A   Clear
4:55 PM 44.2 °F - 18.0 °F 35% 30.23 in 10.0 mi Calm Calm - N/A   Clear
5:15 PM 42.1 °F 40.2 °F 20.8 °F 43% 30.25 in 10.0 mi SW 3.5 mph - N/A   Clear
5:35 PM 42.3 °F - 19.6 °F 40% 30.23 in 10.0 mi Calm Calm - N/A   Clear
5:55 PM 43.9 °F 41.3 °F 17.8 °F 35% 30.23 in 10.0 mi South 4.6 mph - N/A   Clear
6:15 PM 42.3 °F - 19.0 °F 39% 30.23 in 10.0 mi Calm Calm - N/A   Clear
6:35 PM 42.1 °F 39.2 °F 19.6 °F 41% 30.22 in 10.0 mi South 4.6 mph - N/A   Clear
6:55 PM 40.1 °F - 21.2 °F 47% 30.23 in 10.0 mi Calm Calm - N/A   Clear
7:15 PM 39.6 °F 36.3 °F 22.3 °F 50% 30.23 in 10.0 mi SSW 4.6 mph - N/A   Clear
7:35 PM 42.4 °F 39.6 °F 20.3 °F 41% 30.23 in 10.0 mi South 4.6 mph - N/A   Clear
7:55 PM 43.0 °F 38.8 °F 20.3 °F 40% 30.23 in 10.0 mi South 6.9 mph - N/A   Mostly Cloudy
8:15 PM 42.8 °F 41.1 °F 20.7 °F 41% 30.22 in 10.0 mi South 3.5 mph - N/A   Overcast
8:55 PM 41.0 °F 39.0 °F 25.0 °F 53% 30.21 in 10.0 mi South 3.5 mph - N/A   Overcast
9:15 PM 40.6 °F 36.7 °F 25.3 °F 54% 30.21 in 10.0 mi SSW 5.8 mph - N/A   Unknown
9:35 PM 40.1 °F 36.9 °F 26.4 °F 58% 30.21 in 7.0 mi South 4.6 mph - N/A   Unknown
9:55 PM 40.5 °F 36.5 °F 26.2 °F 57% 30.19 in 10.0 mi SSE 5.8 mph - N/A   Overcast
10:15 PM 41.5 °F 38.6 °F 25.3 °F 53% 30.19 in 10.0 mi SW 4.6 mph - N/A   Overcast
10:35 PM 40.6 °F 38.6 °F 26.2 °F 57% 30.18 in 10.0 mi SW 3.5 mph - N/A   Overcast
10:55 PM 39.4 °F 37.2 °F 27.1 °F 62% 30.17 in 10.0 mi WSW 3.5 mph - N/A   Overcast
11:15 PM 40.1 °F - 27.3 °F 60% 30.18 in 10.0 mi Calm Calm - N/A   Overcast
11:35 PM 40.1 °F - 27.7 °F 61% 30.17 in 10.0 mi Calm Calm - N/A   Overcast
11:55 PM 40.8 °F - 27.9 °F 60% 30.17 in 10.0 mi Calm Calm - N/A   Overcast